sensor_id;sensor_type;location;lat;lon;timestamp;P1;durP1;ratioP1;P2;durP2;ratioP2
68792;SDS011;55778;54.346;10.210;2022-10-16T00:00:35;15.05;;;7.80;;
68792;SDS011;55778;54.346;10.210;2022-10-16T00:03:03;16.42;;;7.80;;
68792;SDS011;55778;54.346;10.210;2022-10-16T00:05:30;14.85;;;7.53;;
68792;SDS011;55778;54.346;10.210;2022-10-16T00:07:55;20.65;;;8.48;;
68792;SDS011;55778;54.346;10.210;2022-10-16T00:10:24;16.15;;;8.05;;
68792;SDS011;55778;54.346;10.210;2022-10-16T00:12:54;15.73;;;7.38;;
68792;SDS011;55778;54.346;10.210;2022-10-16T00:15:21;19.67;;;7.20;;
68792;SDS011;55778;54.346;10.210;2022-10-16T00:17:47;15.77;;;7.22;;
68792;SDS011;55778;54.346;10.210;2022-10-16T00:20:12;14.25;;;6.90;;
68792;SDS011;55778;54.346;10.210;2022-10-16T00:22:45;13.63;;;6.95;;
68792;SDS011;55778;54.346;10.210;2022-10-16T00:25:13;14.95;;;7.20;;
68792;SDS011;55778;54.346;10.210;2022-10-16T00:27:38;14.63;;;7.22;;
68792;SDS011;55778;54.346;10.210;2022-10-16T00:30:09;14.27;;;6.53;;
68792;SDS011;55778;54.346;10.210;2022-10-16T00:32:35;16.48;;;7.40;;
68792;SDS011;55778;54.346;10.210;2022-10-16T00:35:04;16.42;;;7.18;;
68792;SDS011;55778;54.346;10.210;2022-10-16T00:37:35;14.45;;;6.88;;
68792;SDS011;55778;54.346;10.210;2022-10-16T00:49:07;13.93;;;6.93;;
68792;SDS011;55778;54.346;10.210;2022-10-16T00:51:51;14.52;;;5.40;;
68792;SDS011;55778;54.346;10.210;2022-10-16T00:54:44;12.30;;;6.30;;
68792;SDS011;55778;54.346;10.210;2022-10-16T00:57:25;15.93;;;6.15;;
68792;SDS011;55778;54.346;10.210;2022-10-16T01:02:51;12.80;;;5.95;;
68792;SDS011;55778;54.346;10.210;2022-10-16T01:05:21;12.70;;;6.10;;
68792;SDS011;55778;54.346;10.210;2022-10-16T01:08:29;12.80;;;6.20;;
68792;SDS011;55778;54.346;10.210;2022-10-16T01:14:15;13.88;;;5.72;;
68792;SDS011;55778;54.346;10.210;2022-10-16T01:17:15;10.63;;;5.13;;
68792;SDS011;55778;54.346;10.210;2022-10-16T01:20:26;11.73;;;5.13;;
68792;SDS011;55778;54.346;10.210;2022-10-16T01:23:21;10.73;;;4.97;;
68792;SDS011;55778;54.346;10.210;2022-10-16T01:36:39;10.70;;;5.28;;
68792;SDS011;55778;54.346;10.210;2022-10-16T01:39:36;15.45;;;5.40;;
68792;SDS011;55778;54.346;10.210;2022-10-16T01:42:42;11.93;;;5.10;;
68792;SDS011;55778;54.346;10.210;2022-10-16T01:46:11;11.80;;;5.45;;
68792;SDS011;55778;54.346;10.210;2022-10-16T02:02:33;11.55;;;5.43;;
68792;SDS011;55778;54.346;10.210;2022-10-16T02:09:55;12.88;;;5.22;;
68792;SDS011;55778;54.346;10.210;2022-10-16T02:12:53;10.15;;;5.22;;
68792;SDS011;55778;54.346;10.210;2022-10-16T02:16:12;10.32;;;5.32;;
68792;SDS011;55778;54.346;10.210;2022-10-16T02:21:58;12.68;;;5.90;;
68792;SDS011;55778;54.346;10.210;2022-10-16T02:29:14;13.77;;;6.40;;
68792;SDS011;55778;54.346;10.210;2022-10-16T02:32:36;15.25;;;5.47;;
68792;SDS011;55778;54.346;10.210;2022-10-16T02:35:26;12.52;;;5.88;;
68792;SDS011;55778;54.346;10.210;2022-10-16T02:38:36;10.60;;;5.13;;
68792;SDS011;55778;54.346;10.210;2022-10-16T02:49:02;13.98;;;5.65;;
68792;SDS011;55778;54.346;10.210;2022-10-16T02:52:09;10.27;;;5.07;;
68792;SDS011;55778;54.346;10.210;2022-10-16T02:54:54;9.63;;;5.45;;
68792;SDS011;55778;54.346;10.210;2022-10-16T02:57:26;14.88;;;5.57;;
68792;SDS011;55778;54.346;10.210;2022-10-16T03:00:24;13.68;;;5.40;;
68792;SDS011;55778;54.346;10.210;2022-10-16T03:03:17;9.52;;;5.03;;
68792;SDS011;55778;54.346;10.210;2022-10-16T03:06:40;14.90;;;5.47;;
68792;SDS011;55778;54.346;10.210;2022-10-16T03:09:16;17.40;;;5.72;;
68792;SDS011;55778;54.346;10.210;2022-10-16T03:14:59;14.57;;;4.47;;
68792;SDS011;55778;54.346;10.210;2022-10-16T03:17:38;10.57;;;4.25;;
68792;SDS011;55778;54.346;10.210;2022-10-16T03:20:30;9.75;;;4.25;;
68792;SDS011;55778;54.346;10.210;2022-10-16T03:23:19;10.13;;;4.40;;
68792;SDS011;55778;54.346;10.210;2022-10-16T03:26:11;11.70;;;4.68;;
68792;SDS011;55778;54.346;10.210;2022-10-16T03:28:41;13.68;;;4.80;;
68792;SDS011;55778;54.346;10.210;2022-10-16T03:31:22;8.00;;;4.25;;
68792;SDS011;55778;54.346;10.210;2022-10-16T03:34:11;8.45;;;4.00;;
68792;SDS011;55778;54.346;10.210;2022-10-16T03:36:53;7.15;;;3.67;;
68792;SDS011;55778;54.346;10.210;2022-10-16T03:39:27;8.45;;;3.75;;
68792;SDS011;55778;54.346;10.210;2022-10-16T03:42:29;10.73;;;4.03;;
68792;SDS011;55778;54.346;10.210;2022-10-16T03:45:00;6.85;;;3.40;;
68792;SDS011;55778;54.346;10.210;2022-10-16T03:47:49;9.75;;;3.30;;
68792;SDS011;55778;54.346;10.210;2022-10-16T03:50:34;7.80;;;3.58;;
68792;SDS011;55778;54.346;10.210;2022-10-16T03:53:34;9.07;;;3.47;;
68792;SDS011;55778;54.346;10.210;2022-10-16T03:56:15;7.35;;;3.13;;
68792;SDS011;55778;54.346;10.210;2022-10-16T03:59:13;8.48;;;2.95;;
68792;SDS011;55778;54.346;10.210;2022-10-16T04:02:16;9.90;;;2.90;;
68792;SDS011;55778;54.346;10.210;2022-10-16T04:05:18;5.57;;;2.53;;
68792;SDS011;55778;54.346;10.210;2022-10-16T04:07:56;7.45;;;2.85;;
68792;SDS011;55778;54.346;10.210;2022-10-16T04:10:46;6.38;;;2.55;;
68792;SDS011;55778;54.346;10.210;2022-10-16T04:13:49;6.07;;;2.53;;
68792;SDS011;55778;54.346;10.210;2022-10-16T04:16:31;7.85;;;2.75;;
68792;SDS011;55778;54.346;10.210;2022-10-16T04:19:19;5.80;;;2.40;;
68792;SDS011;55778;54.346;10.210;2022-10-16T04:22:06;4.70;;;2.50;;
68792;SDS011;55778;54.346;10.210;2022-10-16T04:24:36;7.60;;;2.63;;
68792;SDS011;55778;54.346;10.210;2022-10-16T04:27:10;4.43;;;2.28;;
68792;SDS011;55778;54.346;10.210;2022-10-16T04:29:43;6.32;;;2.25;;
68792;SDS011;55778;54.346;10.210;2022-10-16T04:32:32;6.35;;;2.33;;
68792;SDS011;55778;54.346;10.210;2022-10-16T04:38:06;5.30;;;2.17;;
68792;SDS011;55778;54.346;10.210;2022-10-16T04:40:52;5.97;;;2.20;;
68792;SDS011;55778;54.346;10.210;2022-10-16T04:46:00;3.35;;;1.95;;
68792;SDS011;55778;54.346;10.210;2022-10-16T04:48:39;6.53;;;2.30;;
68792;SDS011;55778;54.346;10.210;2022-10-16T04:51:13;7.57;;;2.28;;
68792;SDS011;55778;54.346;10.210;2022-10-16T04:53:46;4.28;;;1.92;;
68792;SDS011;55778;54.346;10.210;2022-10-16T04:56:16;4.88;;;1.67;;
68792;SDS011;55778;54.346;10.210;2022-10-16T04:58:54;6.30;;;2.15;;
68792;SDS011;55778;54.346;10.210;2022-10-16T05:01:42;5.45;;;1.98;;
68792;SDS011;55778;54.346;10.210;2022-10-16T05:04:18;4.90;;;1.90;;
68792;SDS011;55778;54.346;10.210;2022-10-16T05:06:49;4.32;;;1.85;;
68792;SDS011;55778;54.346;10.210;2022-10-16T05:09:20;5.45;;;1.67;;
68792;SDS011;55778;54.346;10.210;2022-10-16T05:11:51;4.43;;;1.77;;
68792;SDS011;55778;54.346;10.210;2022-10-16T05:14:29;4.03;;;1.85;;
68792;SDS011;55778;54.346;10.210;2022-10-16T05:17:02;14.40;;;6.53;;
68792;SDS011;55778;54.346;10.210;2022-10-16T05:19:33;4.38;;;1.80;;
68792;SDS011;55778;54.346;10.210;2022-10-16T05:22:06;5.97;;;1.80;;
68792;SDS011;55778;54.346;10.210;2022-10-16T05:24:34;3.08;;;1.60;;
68792;SDS011;55778;54.346;10.210;2022-10-16T05:27:14;6.40;;;1.92;;
68792;SDS011;55778;54.346;10.210;2022-10-16T05:29:55;5.57;;;1.80;;
68792;SDS011;55778;54.346;10.210;2022-10-16T05:32:33;5.97;;;1.98;;
68792;SDS011;55778;54.346;10.210;2022-10-16T05:35:13;7.10;;;2.00;;
68792;SDS011;55778;54.346;10.210;2022-10-16T05:37:54;4.32;;;1.73;;
68792;SDS011;55778;54.346;10.210;2022-10-16T05:40:20;4.85;;;1.88;;
68792;SDS011;55778;54.346;10.210;2022-10-16T05:42:51;4.60;;;1.95;;
68792;SDS011;55778;54.346;10.210;2022-10-16T05:45:22;6.47;;;1.90;;
68792;SDS011;55778;54.346;10.210;2022-10-16T05:47:54;7.38;;;1.95;;
68792;SDS011;55778;54.346;10.210;2022-10-16T05:50:37;3.42;;;1.55;;
68792;SDS011;55778;54.346;10.210;2022-10-16T05:53:09;4.43;;;1.58;;
68792;SDS011;55778;54.346;10.210;2022-10-16T05:55:37;4.18;;;1.63;;
68792;SDS011;55778;54.346;10.210;2022-10-16T05:58:10;5.95;;;1.60;;
68792;SDS011;55778;54.346;10.210;2022-10-16T06:00:39;5.13;;;1.83;;
68792;SDS011;55778;54.346;10.210;2022-10-16T06:03:10;3.17;;;1.80;;
68792;SDS011;55778;54.346;10.210;2022-10-16T06:05:44;4.25;;;1.60;;
68792;SDS011;55778;54.346;10.210;2022-10-16T06:08:24;3.00;;;1.38;;
68792;SDS011;55778;54.346;10.210;2022-10-16T06:11:03;3.83;;;1.50;;
68792;SDS011;55778;54.346;10.210;2022-10-16T06:13:37;6.00;;;1.70;;
68792;SDS011;55778;54.346;10.210;2022-10-16T06:16:09;4.50;;;1.58;;
68792;SDS011;55778;54.346;10.210;2022-10-16T06:18:44;3.95;;;1.50;;
68792;SDS011;55778;54.346;10.210;2022-10-16T06:21:17;5.03;;;1.63;;
68792;SDS011;55778;54.346;10.210;2022-10-16T06:23:54;4.65;;;1.73;;
68792;SDS011;55778;54.346;10.210;2022-10-16T06:26:22;7.32;;;1.60;;
68792;SDS011;55778;54.346;10.210;2022-10-16T06:28:58;2.92;;;1.20;;
68792;SDS011;55778;54.346;10.210;2022-10-16T06:31:25;7.20;;;1.45;;
68792;SDS011;55778;54.346;10.210;2022-10-16T06:33:53;2.50;;;1.10;;
68792;SDS011;55778;54.346;10.210;2022-10-16T06:36:23;4.18;;;1.20;;
68792;SDS011;55778;54.346;10.210;2022-10-16T06:38:50;3.78;;;1.42;;
68792;SDS011;55778;54.346;10.210;2022-10-16T06:41:16;6.63;;;1.20;;
68792;SDS011;55778;54.346;10.210;2022-10-16T06:43:49;4.32;;;1.27;;
68792;SDS011;55778;54.346;10.210;2022-10-16T06:46:21;2.80;;;1.20;;
68792;SDS011;55778;54.346;10.210;2022-10-16T06:48:52;3.25;;;1.35;;
68792;SDS011;55778;54.346;10.210;2022-10-16T06:51:21;3.58;;;1.33;;
68792;SDS011;55778;54.346;10.210;2022-10-16T06:53:53;4.03;;;1.70;;
68792;SDS011;55778;54.346;10.210;2022-10-16T06:56:25;4.90;;;1.30;;
68792;SDS011;55778;54.346;10.210;2022-10-16T06:58:58;4.65;;;1.50;;
68792;SDS011;55778;54.346;10.210;2022-10-16T07:01:27;3.55;;;1.20;;
68792;SDS011;55778;54.346;10.210;2022-10-16T07:03:59;3.47;;;1.30;;
68792;SDS011;55778;54.346;10.210;2022-10-16T07:06:30;2.65;;;1.27;;
68792;SDS011;55778;54.346;10.210;2022-10-16T07:08:58;2.50;;;1.35;;
68792;SDS011;55778;54.346;10.210;2022-10-16T07:11:32;2.47;;;1.45;;
68792;SDS011;55778;54.346;10.210;2022-10-16T07:14:08;4.43;;;1.52;;
68792;SDS011;55778;54.346;10.210;2022-10-16T07:16:48;4.68;;;1.50;;
68792;SDS011;55778;54.346;10.210;2022-10-16T07:19:14;3.25;;;1.58;;
68792;SDS011;55778;54.346;10.210;2022-10-16T07:21:59;3.83;;;1.48;;
68792;SDS011;55778;54.346;10.210;2022-10-16T07:24:24;3.53;;;1.83;;
68792;SDS011;55778;54.346;10.210;2022-10-16T07:26:50;5.97;;;1.98;;
68792;SDS011;55778;54.346;10.210;2022-10-16T07:29:19;3.22;;;1.50;;
68792;SDS011;55778;54.346;10.210;2022-10-16T07:31:46;1.83;;;1.10;;
68792;SDS011;55778;54.346;10.210;2022-10-16T07:34:16;5.45;;;1.63;;
68792;SDS011;55778;54.346;10.210;2022-10-16T07:36:42;6.70;;;1.67;;
68792;SDS011;55778;54.346;10.210;2022-10-16T07:39:10;4.40;;;1.73;;
68792;SDS011;55778;54.346;10.210;2022-10-16T07:41:42;2.80;;;1.60;;
68792;SDS011;55778;54.346;10.210;2022-10-16T07:44:10;3.65;;;1.67;;
68792;SDS011;55778;54.346;10.210;2022-10-16T07:46:36;5.13;;;1.88;;
68792;SDS011;55778;54.346;10.210;2022-10-16T07:49:03;2.03;;;1.23;;
68792;SDS011;55778;54.346;10.210;2022-10-16T07:51:34;4.22;;;2.00;;
68792;SDS011;55778;54.346;10.210;2022-10-16T07:53:59;5.53;;;1.80;;
68792;SDS011;55778;54.346;10.210;2022-10-16T07:56:27;2.95;;;1.65;;
68792;SDS011;55778;54.346;10.210;2022-10-16T07:58:55;4.03;;;1.70;;
68792;SDS011;55778;54.346;10.210;2022-10-16T08:01:21;4.18;;;2.03;;
68792;SDS011;55778;54.346;10.210;2022-10-16T08:03:50;6.10;;;1.65;;
68792;SDS011;55778;54.346;10.210;2022-10-16T08:06:17;3.47;;;1.83;;
68792;SDS011;55778;54.346;10.210;2022-10-16T08:08:43;5.05;;;1.92;;
68792;SDS011;55778;54.346;10.210;2022-10-16T08:11:09;4.57;;;1.83;;
68792;SDS011;55778;54.346;10.210;2022-10-16T08:13:34;4.18;;;1.90;;
68792;SDS011;55778;54.346;10.210;2022-10-16T08:16:00;3.05;;;1.52;;
68792;SDS011;55778;54.346;10.210;2022-10-16T08:18:26;3.03;;;1.65;;
68792;SDS011;55778;54.346;10.210;2022-10-16T08:20:58;3.38;;;1.75;;
68792;SDS011;55778;54.346;10.210;2022-10-16T08:23:25;2.92;;;1.80;;
68792;SDS011;55778;54.346;10.210;2022-10-16T08:25:54;10.25;;;1.80;;
68792;SDS011;55778;54.346;10.210;2022-10-16T08:28:21;4.18;;;1.83;;
68792;SDS011;55778;54.346;10.210;2022-10-16T08:30:47;3.58;;;1.80;;
68792;SDS011;55778;54.346;10.210;2022-10-16T08:33:13;5.70;;;1.80;;
68792;SDS011;55778;54.346;10.210;2022-10-16T08:35:38;4.88;;;2.00;;
68792;SDS011;55778;54.346;10.210;2022-10-16T08:38:04;3.25;;;1.70;;
68792;SDS011;55778;54.346;10.210;2022-10-16T08:40:31;4.53;;;2.20;;
68792;SDS011;55778;54.346;10.210;2022-10-16T08:46:21;3.85;;;1.92;;
68792;SDS011;55778;54.346;10.210;2022-10-16T08:48:50;3.78;;;2.08;;
68792;SDS011;55778;54.346;10.210;2022-10-16T08:51:28;4.13;;;1.95;;
68792;SDS011;55778;54.346;10.210;2022-10-16T08:53:56;5.57;;;1.95;;
68792;SDS011;55778;54.346;10.210;2022-10-16T08:56:24;7.45;;;2.35;;
68792;SDS011;55778;54.346;10.210;2022-10-16T08:58:51;6.65;;;2.45;;
68792;SDS011;55778;54.346;10.210;2022-10-16T09:01:17;7.38;;;2.35;;
68792;SDS011;55778;54.346;10.210;2022-10-16T09:03:49;4.80;;;2.10;;
68792;SDS011;55778;54.346;10.210;2022-10-16T09:16:30;6.05;;;2.40;;
68792;SDS011;55778;54.346;10.210;2022-10-16T09:19:03;6.38;;;2.28;;
68792;SDS011;55778;54.346;10.210;2022-10-16T09:21:43;5.32;;;2.55;;
68792;SDS011;55778;54.346;10.210;2022-10-16T09:24:14;5.93;;;2.17;;
68792;SDS011;55778;54.346;10.210;2022-10-16T09:26:44;6.72;;;2.80;;
68792;SDS011;55778;54.346;10.210;2022-10-16T09:29:11;6.80;;;2.38;;
68792;SDS011;55778;54.346;10.210;2022-10-16T09:31:38;6.75;;;1.88;;
68792;SDS011;55778;54.346;10.210;2022-10-16T09:34:03;4.63;;;1.92;;
68792;SDS011;55778;54.346;10.210;2022-10-16T09:36:35;5.93;;;1.90;;
68792;SDS011;55778;54.346;10.210;2022-10-16T09:39:07;10.80;;;2.20;;
68792;SDS011;55778;54.346;10.210;2022-10-16T09:41:35;6.22;;;2.45;;
68792;SDS011;55778;54.346;10.210;2022-10-16T09:44:05;4.22;;;1.83;;
68792;SDS011;55778;54.346;10.210;2022-10-16T09:46:41;4.57;;;2.03;;
68792;SDS011;55778;54.346;10.210;2022-10-16T09:49:23;4.53;;;1.90;;
68792;SDS011;55778;54.346;10.210;2022-10-16T09:51:51;5.82;;;1.80;;
68792;SDS011;55778;54.346;10.210;2022-10-16T09:54:27;4.30;;;1.33;;
68792;SDS011;55778;54.346;10.210;2022-10-16T09:57:03;5.30;;;1.88;;
68792;SDS011;55778;54.346;10.210;2022-10-16T09:59:30;8.90;;;1.77;;
68792;SDS011;55778;54.346;10.210;2022-10-16T10:01:56;5.40;;;1.50;;
68792;SDS011;55778;54.346;10.210;2022-10-16T10:04:36;6.15;;;1.50;;
68792;SDS011;55778;54.346;10.210;2022-10-16T10:07:04;4.75;;;1.67;;
68792;SDS011;55778;54.346;10.210;2022-10-16T10:09:38;6.00;;;1.60;;
68792;SDS011;55778;54.346;10.210;2022-10-16T10:12:05;5.93;;;1.50;;
68792;SDS011;55778;54.346;10.210;2022-10-16T10:14:43;5.00;;;1.55;;
68792;SDS011;55778;54.346;10.210;2022-10-16T10:17:16;5.32;;;1.70;;
68792;SDS011;55778;54.346;10.210;2022-10-16T10:19:54;6.25;;;1.77;;
68792;SDS011;55778;54.346;10.210;2022-10-16T10:33:58;5.05;;;1.90;;
68792;SDS011;55778;54.346;10.210;2022-10-16T10:36:46;5.65;;;1.80;;
68792;SDS011;55778;54.346;10.210;2022-10-16T10:44:36;4.80;;;1.40;;
68792;SDS011;55778;54.346;10.210;2022-10-16T11:06:45;9.35;;;1.80;;
68792;SDS011;55778;54.346;10.210;2022-10-16T11:09:16;4.53;;;1.40;;
68792;SDS011;55778;54.346;10.210;2022-10-16T11:12:00;2.78;;;1.33;;
68792;SDS011;55778;54.346;10.210;2022-10-16T11:14:31;5.22;;;1.70;;
68792;SDS011;55778;54.346;10.210;2022-10-16T11:39:46;3.03;;;1.30;;
68792;SDS011;55778;54.346;10.210;2022-10-16T11:43:01;2.38;;;0.85;;
68792;SDS011;55778;54.346;10.210;2022-10-16T11:46:30;4.75;;;1.27;;
68792;SDS011;55778;54.346;10.210;2022-10-16T11:55:52;4.78;;;1.02;;
68792;SDS011;55778;54.346;10.210;2022-10-16T12:03:54;7.88;;;1.20;;
68792;SDS011;55778;54.346;10.210;2022-10-16T12:06:35;4.35;;;1.30;;
68792;SDS011;55778;54.346;10.210;2022-10-16T12:09:05;7.30;;;1.60;;
68792;SDS011;55778;54.346;10.210;2022-10-16T12:11:37;3.25;;;1.00;;
68792;SDS011;55778;54.346;10.210;2022-10-16T12:16:50;5.50;;;1.08;;
68792;SDS011;55778;54.346;10.210;2022-10-16T12:19:18;5.05;;;1.45;;
68792;SDS011;55778;54.346;10.210;2022-10-16T12:21:44;5.50;;;1.30;;
68792;SDS011;55778;54.346;10.210;2022-10-16T12:24:19;4.95;;;1.30;;
68792;SDS011;55778;54.346;10.210;2022-10-16T12:27:24;5.25;;;1.23;;
68792;SDS011;55778;54.346;10.210;2022-10-16T12:30:04;8.55;;;1.67;;
68792;SDS011;55778;54.346;10.210;2022-10-16T12:32:39;4.95;;;1.42;;
68792;SDS011;55778;54.346;10.210;2022-10-16T12:35:18;6.70;;;1.10;;
68792;SDS011;55778;54.346;10.210;2022-10-16T12:37:54;6.43;;;1.20;;
68792;SDS011;55778;54.346;10.210;2022-10-16T12:40:44;5.78;;;1.00;;
68792;SDS011;55778;54.346;10.210;2022-10-16T12:46:02;5.28;;;1.45;;
68792;SDS011;55778;54.346;10.210;2022-10-16T12:48:33;6.13;;;1.40;;
68792;SDS011;55778;54.346;10.210;2022-10-16T13:08:43;8.23;;;1.17;;
68792;SDS011;55778;54.346;10.210;2022-10-16T13:23:32;6.43;;;1.23;;
68792;SDS011;55778;54.346;10.210;2022-10-16T13:29:11;7.05;;;1.40;;
68792;SDS011;55778;54.346;10.210;2022-10-16T13:31:38;8.15;;;1.30;;
68792;SDS011;55778;54.346;10.210;2022-10-16T13:34:04;6.90;;;1.35;;
68792;SDS011;55778;54.346;10.210;2022-10-16T13:36:35;5.70;;;1.35;;
68792;SDS011;55778;54.346;10.210;2022-10-16T13:39:13;5.35;;;1.13;;
68792;SDS011;55778;54.346;10.210;2022-10-16T13:44:43;7.45;;;1.25;;
68792;SDS011;55778;54.346;10.210;2022-10-16T13:47:20;5.30;;;1.20;;
68792;SDS011;55778;54.346;10.210;2022-10-16T13:49:46;7.78;;;1.60;;
68792;SDS011;55778;54.346;10.210;2022-10-16T13:52:17;5.22;;;1.20;;
68792;SDS011;55778;54.346;10.210;2022-10-16T13:54:44;3.45;;;1.17;;
68792;SDS011;55778;54.346;10.210;2022-10-16T13:57:13;4.05;;;1.05;;
68792;SDS011;55778;54.346;10.210;2022-10-16T13:59:40;5.20;;;1.45;;
68792;SDS011;55778;54.346;10.210;2022-10-16T14:02:26;5.22;;;1.20;;
68792;SDS011;55778;54.346;10.210;2022-10-16T14:04:54;4.13;;;1.20;;
68792;SDS011;55778;54.346;10.210;2022-10-16T14:07:31;5.85;;;1.50;;
68792;SDS011;55778;54.346;10.210;2022-10-16T14:10:03;3.13;;;0.80;;
68792;SDS011;55778;54.346;10.210;2022-10-16T14:12:31;6.07;;;1.30;;
68792;SDS011;55778;54.346;10.210;2022-10-16T14:14:58;4.60;;;1.58;;
68792;SDS011;55778;54.346;10.210;2022-10-16T14:17:25;7.20;;;1.35;;
68792;SDS011;55778;54.346;10.210;2022-10-16T14:19:54;8.20;;;1.30;;
68792;SDS011;55778;54.346;10.210;2022-10-16T14:22:29;7.10;;;1.13;;
68792;SDS011;55778;54.346;10.210;2022-10-16T14:28:00;5.00;;;1.25;;
68792;SDS011;55778;54.346;10.210;2022-10-16T14:30:29;6.03;;;1.20;;
68792;SDS011;55778;54.346;10.210;2022-10-16T14:32:58;5.32;;;1.08;;
68792;SDS011;55778;54.346;10.210;2022-10-16T14:35:32;5.60;;;0.98;;
68792;SDS011;55778;54.346;10.210;2022-10-16T14:37:59;7.72;;;1.35;;
68792;SDS011;55778;54.346;10.210;2022-10-16T14:40:32;6.53;;;1.58;;
68792;SDS011;55778;54.346;10.210;2022-10-16T14:43:00;7.50;;;1.40;;
68792;SDS011;55778;54.346;10.210;2022-10-16T14:45:28;10.52;;;1.55;;
68792;SDS011;55778;54.346;10.210;2022-10-16T14:47:57;5.63;;;1.20;;
68792;SDS011;55778;54.346;10.210;2022-10-16T14:52:50;7.47;;;1.60;;
68792;SDS011;55778;54.346;10.210;2022-10-16T14:55:16;6.57;;;1.42;;
68792;SDS011;55778;54.346;10.210;2022-10-16T14:57:42;5.93;;;1.25;;
68792;SDS011;55778;54.346;10.210;2022-10-16T15:02:48;6.97;;;1.70;;
68792;SDS011;55778;54.346;10.210;2022-10-16T15:07:48;6.43;;;1.15;;
68792;SDS011;55778;54.346;10.210;2022-10-16T15:10:14;5.80;;;1.38;;
68792;SDS011;55778;54.346;10.210;2022-10-16T15:12:42;6.90;;;1.75;;
68792;SDS011;55778;54.346;10.210;2022-10-16T15:15:21;7.47;;;1.45;;
68792;SDS011;55778;54.346;10.210;2022-10-16T15:17:58;7.43;;;1.48;;
68792;SDS011;55778;54.346;10.210;2022-10-16T15:20:26;7.63;;;1.70;;
68792;SDS011;55778;54.346;10.210;2022-10-16T15:22:53;6.50;;;1.40;;
68792;SDS011;55778;54.346;10.210;2022-10-16T15:28:07;7.40;;;1.40;;
68792;SDS011;55778;54.346;10.210;2022-10-16T15:30:33;5.75;;;1.48;;
68792;SDS011;55778;54.346;10.210;2022-10-16T15:32:59;8.70;;;1.52;;
68792;SDS011;55778;54.346;10.210;2022-10-16T15:35:25;8.57;;;1.30;;
68792;SDS011;55778;54.346;10.210;2022-10-16T15:37:50;5.85;;;1.40;;
68792;SDS011;55778;54.346;10.210;2022-10-16T15:40:16;7.78;;;1.92;;
68792;SDS011;55778;54.346;10.210;2022-10-16T15:42:43;10.07;;;2.00;;
68792;SDS011;55778;54.346;10.210;2022-10-16T15:45:09;9.35;;;1.63;;
68792;SDS011;55778;54.346;10.210;2022-10-16T15:47:35;7.93;;;1.50;;
68792;SDS011;55778;54.346;10.210;2022-10-16T15:50:01;15.52;;;1.73;;
68792;SDS011;55778;54.346;10.210;2022-10-16T15:52:26;8.30;;;1.10;;
68792;SDS011;55778;54.346;10.210;2022-10-16T15:54:53;10.02;;;2.30;;
68792;SDS011;55778;54.346;10.210;2022-10-16T15:57:19;11.93;;;1.30;;
68792;SDS011;55778;54.346;10.210;2022-10-16T15:59:45;8.90;;;1.50;;
68792;SDS011;55778;54.346;10.210;2022-10-16T16:02:10;8.95;;;2.30;;
68792;SDS011;55778;54.346;10.210;2022-10-16T16:04:35;7.57;;;1.55;;
68792;SDS011;55778;54.346;10.210;2022-10-16T16:07:04;10.57;;;1.80;;
68792;SDS011;55778;54.346;10.210;2022-10-16T16:09:32;9.55;;;2.10;;
68792;SDS011;55778;54.346;10.210;2022-10-16T16:11:57;7.32;;;1.70;;
68792;SDS011;55778;54.346;10.210;2022-10-16T16:14:25;7.68;;;1.60;;
68792;SDS011;55778;54.346;10.210;2022-10-16T16:16:53;10.45;;;2.03;;
68792;SDS011;55778;54.346;10.210;2022-10-16T16:19:19;8.10;;;1.45;;
68792;SDS011;55778;54.346;10.210;2022-10-16T16:21:46;10.27;;;1.80;;
68792;SDS011;55778;54.346;10.210;2022-10-16T16:24:12;12.68;;;2.35;;
68792;SDS011;55778;54.346;10.210;2022-10-16T16:26:37;9.43;;;1.95;;
68792;SDS011;55778;54.346;10.210;2022-10-16T16:29:05;14.35;;;1.90;;
68792;SDS011;55778;54.346;10.210;2022-10-16T16:31:31;9.98;;;1.65;;
68792;SDS011;55778;54.346;10.210;2022-10-16T16:33:58;12.70;;;2.30;;
68792;SDS011;55778;54.346;10.210;2022-10-16T16:36:24;7.90;;;1.80;;
68792;SDS011;55778;54.346;10.210;2022-10-16T16:38:50;13.70;;;2.25;;
68792;SDS011;55778;54.346;10.210;2022-10-16T16:41:17;10.48;;;2.03;;
68792;SDS011;55778;54.346;10.210;2022-10-16T16:43:44;13.00;;;2.67;;
68792;SDS011;55778;54.346;10.210;2022-10-16T16:46:10;11.90;;;2.38;;
68792;SDS011;55778;54.346;10.210;2022-10-16T16:48:38;10.48;;;2.22;;
68792;SDS011;55778;54.346;10.210;2022-10-16T16:51:04;7.43;;;2.28;;
68792;SDS011;55778;54.346;10.210;2022-10-16T16:53:44;10.50;;;1.98;;
68792;SDS011;55778;54.346;10.210;2022-10-16T16:56:17;11.90;;;2.38;;
68792;SDS011;55778;54.346;10.210;2022-10-16T16:58:46;10.85;;;1.88;;
68792;SDS011;55778;54.346;10.210;2022-10-16T17:01:13;11.00;;;1.85;;
68792;SDS011;55778;54.346;10.210;2022-10-16T17:03:41;15.60;;;2.42;;
68792;SDS011;55778;54.346;10.210;2022-10-16T17:06:09;15.75;;;2.67;;
68792;SDS011;55778;54.346;10.210;2022-10-16T17:08:36;13.75;;;3.42;;
68792;SDS011;55778;54.346;10.210;2022-10-16T17:11:36;11.52;;;2.40;;
68792;SDS011;55778;54.346;10.210;2022-10-16T17:14:09;15.50;;;2.70;;
68792;SDS011;55778;54.346;10.210;2022-10-16T17:16:55;11.25;;;2.60;;
68792;SDS011;55778;54.346;10.210;2022-10-16T17:19:48;14.18;;;2.20;;
68792;SDS011;55778;54.346;10.210;2022-10-16T17:22:20;12.85;;;2.20;;
68792;SDS011;55778;54.346;10.210;2022-10-16T17:24:53;13.90;;;1.98;;
68792;SDS011;55778;54.346;10.210;2022-10-16T17:27:48;12.30;;;1.98;;
68792;SDS011;55778;54.346;10.210;2022-10-16T17:30:16;12.48;;;1.85;;
68792;SDS011;55778;54.346;10.210;2022-10-16T17:32:41;9.50;;;1.58;;
68792;SDS011;55778;54.346;10.210;2022-10-16T17:35:07;14.65;;;1.85;;
68792;SDS011;55778;54.346;10.210;2022-10-16T17:37:33;14.85;;;2.35;;
68792;SDS011;55778;54.346;10.210;2022-10-16T17:40:01;14.18;;;2.50;;
68792;SDS011;55778;54.346;10.210;2022-10-16T17:42:31;10.48;;;2.25;;
68792;SDS011;55778;54.346;10.210;2022-10-16T17:44:59;11.65;;;2.60;;
68792;SDS011;55778;54.346;10.210;2022-10-16T17:47:38;12.15;;;2.65;;
68792;SDS011;55778;54.346;10.210;2022-10-16T17:50:06;11.05;;;2.38;;
68792;SDS011;55778;54.346;10.210;2022-10-16T17:52:38;12.60;;;2.03;;
68792;SDS011;55778;54.346;10.210;2022-10-16T17:55:16;12.10;;;2.70;;
68792;SDS011;55778;54.346;10.210;2022-10-16T17:57:54;23.63;;;8.75;;
68792;SDS011;55778;54.346;10.210;2022-10-16T18:00:23;13.30;;;2.80;;
68792;SDS011;55778;54.346;10.210;2022-10-16T18:02:49;10.35;;;2.15;;
68792;SDS011;55778;54.346;10.210;2022-10-16T18:05:21;18.13;;;2.97;;
68792;SDS011;55778;54.346;10.210;2022-10-16T18:08:08;9.77;;;2.25;;
68792;SDS011;55778;54.346;10.210;2022-10-16T18:10:43;10.52;;;2.45;;
68792;SDS011;55778;54.346;10.210;2022-10-16T18:13:19;8.90;;;2.58;;
68792;SDS011;55778;54.346;10.210;2022-10-16T18:15:58;12.90;;;2.38;;
68792;SDS011;55778;54.346;10.210;2022-10-16T18:18:25;16.15;;;2.40;;
68792;SDS011;55778;54.346;10.210;2022-10-16T18:21:01;15.35;;;2.78;;
68792;SDS011;55778;54.346;10.210;2022-10-16T18:23:28;15.30;;;3.50;;
68792;SDS011;55778;54.346;10.210;2022-10-16T18:25:54;14.77;;;3.17;;
68792;SDS011;55778;54.346;10.210;2022-10-16T18:28:20;13.15;;;2.53;;
68792;SDS011;55778;54.346;10.210;2022-10-16T18:30:59;14.38;;;2.65;;
68792;SDS011;55778;54.346;10.210;2022-10-16T18:33:30;12.80;;;2.67;;
68792;SDS011;55778;54.346;10.210;2022-10-16T18:36:04;10.65;;;2.20;;
68792;SDS011;55778;54.346;10.210;2022-10-16T18:38:32;13.57;;;2.70;;
68792;SDS011;55778;54.346;10.210;2022-10-16T18:41:07;16.17;;;2.55;;